Time;durP1;ratioP1;P1;durP2;ratioP2;P2;SDS_P1;SDS_P2;PMS_P1;PMS_P2;Temp;Humidity;BMP_temperature;BMP_pressure;BME280_temperature;BME280_humidity;BME280_pressure;Samples;Min_cycle;Max_cycle;Signal;HPM_P1;HPM_P2
2023/05/06 00:01:57;;;;;;;48.67;34.08;;;14.00;99.90;;;;;;5039110;28;20207;-73
2023/05/06 00:04:24;;;;;;;58.25;34.63;;;14.00;99.90;;;;;;5041743;28;20200;-72
2023/05/06 00:06:51;;;;;;;53.38;34.70;;;13.90;99.90;;;;;;5033654;28;20207;-73
2023/05/06 00:09:18;;;;;;;51.35;36.50;;;13.80;99.90;;;;;;5034216;28;20698;-74
2023/05/06 00:11:46;;;;;;;54.55;37.22;;;13.80;99.90;;;;;;5033741;28;20212;-71
2023/05/06 00:14:13;;;;;;;63.08;38.00;;;13.70;99.90;;;;;;5034157;28;20203;-71
2023/05/06 00:16:41;;;;;;;58.95;39.05;;;13.70;99.90;;;;;;5033936;28;20212;-73
2023/05/06 00:19:08;;;;;;;49.90;36.53;;;13.60;99.90;;;;;;5033771;28;20223;-73
2023/05/06 00:21:35;;;;;;;55.30;37.08;;;13.60;99.90;;;;;;5033592;28;20214;-73
2023/05/06 00:24:03;;;;;;;51.75;37.40;;;13.60;99.90;;;;;;5037117;28;20212;-71
2023/05/06 00:26:30;;;;;;;48.30;35.72;;;13.70;99.90;;;;;;5033957;28;20201;-74
2023/05/06 00:28:57;;;;;;;65.82;43.05;;;13.70;99.90;;;;;;5036233;28;20223;-72
2023/05/06 00:31:24;;;;;;;56.08;36.95;;;13.70;99.90;;;;;;5029115;28;20292;-74
2023/05/06 00:33:52;;;;;;;56.78;37.35;;;13.70;99.90;;;;;;5031027;28;20197;-71
2023/05/06 00:36:19;;;;;;;55.22;37.85;;;13.70;99.90;;;;;;5024914;28;20204;-74
2023/05/06 00:38:46;;;;;;;53.33;38.17;;;13.80;99.90;;;;;;5033608;28;20232;-73
2023/05/06 00:41:21;;;;;;;44.83;33.83;;;13.80;99.90;;;;;;5033661;28;20204;-73
2023/05/06 00:43:48;;;;;;;45.70;33.63;;;13.80;99.90;;;;;;5034502;28;20192;-73
2023/05/06 00:46:19;;;;;;;44.08;32.80;;;13.90;99.90;;;;;;5034111;28;20197;-72
2023/05/06 00:48:46;;;;;;;42.70;31.95;;;14.00;99.90;;;;;;5042174;28;20262;-73
2023/05/06 00:51:15;;;;;;;43.13;34.08;;;14.00;99.90;;;;;;5032669;28;20208;-72
2023/05/06 00:53:42;;;;;;;40.97;30.65;;;14.00;99.90;;;;;;5033503;28;20211;-73
2023/05/06 00:56:09;;;;;;;39.03;29.73;;;14.00;99.90;;;;;;5033341;28;20193;-75
2023/05/06 00:58:37;;;;;;;37.58;30.08;;;14.00;99.90;;;;;;5029577;28;20709;-74
2023/05/06 01:01:04;;;;;;;35.22;28.70;;;14.00;99.90;;;;;;5026132;28;20200;-73
2023/05/06 01:03:31;;;;;;;36.95;29.80;;;14.00;99.90;;;;;;5041288;28;20653;-73
2023/05/06 01:06:07;;;;;;;34.22;26.73;;;14.00;99.90;;;;;;5033055;28;20594;-73
2023/05/06 01:08:42;;;;;;;33.50;27.02;;;14.00;99.90;;;;;;5033824;28;20198;-75
2023/05/06 01:11:13;;;;;;;30.55;26.10;;;14.00;99.90;;;;;;5037956;28;20725;-75
2023/05/06 01:13:46;;;;;;;30.55;25.40;;;14.00;99.90;;;;;;5033978;28;20196;-73
2023/05/06 01:16:16;;;;;;;28.83;25.08;;;14.00;99.90;;;;;;5033821;28;20673;-75
2023/05/06 01:18:44;;;;;;;30.58;24.25;;;14.00;99.90;;;;;;5033683;28;20228;-73
2023/05/06 01:21:12;;;;;;;30.17;23.75;;;14.00;99.90;;;;;;5032784;28;20204;-74
2023/05/06 01:23:54;;;;;;;36.80;27.05;;;14.00;99.90;;;;;;5034452;28;20204;-73
2023/05/06 01:26:21;;;;;;;38.60;29.13;;;13.90;99.90;;;;;;5034920;28;20196;-74
2023/05/06 01:28:48;;;;;;;37.13;28.98;;;13.90;99.90;;;;;;5032666;28;20224;-73
2023/05/06 01:31:23;;;;;;;35.88;28.08;;;13.90;99.90;;;;;;5034315;28;20211;-72
2023/05/06 01:34:05;;;;;;;36.85;27.13;;;13.90;99.90;;;;;;5032672;28;20292;-74
2023/05/06 01:36:41;;;;;;;44.58;31.80;;;13.90;99.90;;;;;;5032177;28;20211;-74
2023/05/06 01:39:16;;;;;;;40.38;29.58;;;13.80;99.90;;;;;;5041157;28;20682;-73
2023/05/06 01:41:44;;;;;;;48.17;34.08;;;13.90;99.90;;;;;;5028853;28;20200;-75
2023/05/06 01:44:12;;;;;;;45.63;33.60;;;13.90;99.90;;;;;;5032819;28;20303;-72
2023/05/06 01:46:39;;;;;;;46.83;32.47;;;13.80;99.90;;;;;;5036613;28;20211;-72
2023/05/06 01:49:10;;;;;;;52.78;35.60;;;13.80;99.90;;;;;;5032582;28;20270;-74
2023/05/06 01:51:37;;;;;;;51.95;33.15;;;13.70;99.90;;;;;;5030806;28;20685;-73
2023/05/06 01:54:04;;;;;;;58.58;37.95;;;13.60;99.90;;;;;;5032870;28;20211;-74
2023/05/06 01:56:32;;;;;;;55.00;36.50;;;13.60;99.90;;;;;;5031277;28;20196;-74
2023/05/06 01:58:59;;;;;;;46.85;32.30;;;13.60;99.90;;;;;;5031526;28;20224;-75
2023/05/06 02:01:26;;;;;;;39.55;28.15;;;13.60;99.90;;;;;;5031885;28;20199;-74
2023/05/06 02:03:53;;;;;;;34.97;30.52;;;13.50;99.90;;;;;;5032398;28;20326;-73
2023/05/06 02:06:20;;;;;;;44.28;30.13;;;13.60;99.90;;;;;;5032450;28;20197;-73
2023/05/06 02:08:47;;;;;;;36.70;29.55;;;13.60;99.90;;;;;;5031700;28;20230;-73
2023/05/06 02:11:14;;;;;;;40.83;30.80;;;13.50;99.90;;;;;;5032013;28;20206;-71
2023/05/06 02:13:42;;;;;;;37.80;30.02;;;13.50;99.90;;;;;;5031823;28;20250;-74
2023/05/06 02:16:09;;;;;;;41.92;28.30;;;13.50;99.90;;;;;;5032501;28;20192;-73
2023/05/06 02:18:36;;;;;;;40.63;29.48;;;13.50;99.90;;;;;;5034257;28;20232;-72
2023/05/06 02:21:03;;;;;;;35.03;27.35;;;13.40;99.90;;;;;;5031253;28;20283;-73
2023/05/06 02:23:30;;;;;;;35.53;28.27;;;13.30;99.90;;;;;;5035885;28;20218;-75
2023/05/06 02:25:57;;;;;;;39.85;30.17;;;13.30;99.90;;;;;;5037381;28;20200;-72
2023/05/06 02:28:25;;;;;;;41.20;34.83;;;13.30;99.90;;;;;;5033745;28;20223;-74
2023/05/06 02:30:57;;;;;;;39.17;30.58;;;13.30;99.90;;;;;;5032460;28;20546;-74
2023/05/06 02:33:25;;;;;;;36.85;29.80;;;13.30;99.90;;;;;;5028046;28;20287;-73
2023/05/06 02:35:52;;;;;;;34.92;29.05;;;13.30;99.90;;;;;;5032898;28;20203;-73
2023/05/06 02:38:19;;;;;;;41.40;30.30;;;13.30;99.90;;;;;;5031991;28;20295;-74
2023/05/06 02:40:46;;;;;;;38.42;27.70;;;13.30;99.90;;;;;;5037315;28;20246;-74
2023/05/06 02:43:13;;;;;;;33.88;26.40;;;13.30;99.90;;;;;;5033082;28;20617;-73
2023/05/06 02:45:40;;;;;;;37.33;27.45;;;13.30;99.90;;;;;;5031663;28;20200;-72
2023/05/06 02:48:08;;;;;;;29.27;24.77;;;13.20;99.90;;;;;;5038125;28;20212;-73
2023/05/06 02:50:35;;;;;;;36.95;26.98;;;13.20;99.90;;;;;;5035936;28;20646;-72
2023/05/06 02:53:02;;;;;;;37.72;25.83;;;13.20;99.90;;;;;;5038195;28;20704;-74
2023/05/06 02:55:29;;;;;;;32.90;22.08;;;13.20;99.90;;;;;;5036861;28;20616;-73
2023/05/06 02:57:56;;;;;;;38.45;25.50;;;13.20;99.90;;;;;;5039996;28;20290;-73
2023/05/06 03:00:23;;;;;;;32.20;23.67;;;13.30;99.90;;;;;;5041940;28;20691;-73
2023/05/06 03:02:50;;;;;;;27.98;21.85;;;13.10;99.90;;;;;;5037914;28;20286;-74
2023/05/06 03:05:19;;;;;;;26.83;20.58;;;13.10;99.90;;;;;;5041323;28;20202;-71
2023/05/06 03:07:46;;;;;;;30.95;22.92;;;13.00;99.90;;;;;;5036860;28;20265;-74
2023/05/06 03:10:13;;;;;;;30.70;21.63;;;13.00;99.90;;;;;;5038687;28;20223;-75
2023/05/06 03:12:40;;;;;;;28.58;22.38;;;13.10;99.90;;;;;;5037147;28;20204;-72
2023/05/06 03:15:07;;;;;;;27.90;21.02;;;13.10;99.90;;;;;;5046225;28;20283;-75
2023/05/06 03:17:34;;;;;;;29.08;20.75;;;13.10;99.90;;;;;;5034453;28;20283;-74
2023/05/06 03:20:02;;;;;;;28.90;23.23;;;13.10;99.90;;;;;;5031281;28;20227;-73
2023/05/06 03:22:30;;;;;;;29.90;21.40;;;13.00;99.90;;;;;;5037179;28;20222;-75
2023/05/06 03:24:57;;;;;;;30.95;21.92;;;12.90;99.90;;;;;;5035638;28;20206;-72
2023/05/06 03:27:23;;;;;;;29.80;20.73;;;12.80;99.90;;;;;;5035818;28;20314;-74
2023/05/06 03:29:50;;;;;;;38.83;23.30;;;12.70;99.90;;;;;;5042740;28;20242;-72
2023/05/06 03:32:18;;;;;;;26.25;19.40;;;12.70;99.90;;;;;;5038927;28;20203;-72
2023/05/06 03:34:45;;;;;;;32.45;20.95;;;12.60;99.90;;;;;;5034441;28;20203;-72
2023/05/06 03:37:12;;;;;;;30.67;21.40;;;12.60;99.90;;;;;;5029634;28;20208;-73
2023/05/06 03:39:40;;;;;;;26.30;19.02;;;12.60;99.90;;;;;;5034809;28;20323;-73
2023/05/06 03:42:07;;;;;;;30.55;21.30;;;12.60;99.90;;;;;;5033363;28;20197;-72
2023/05/06 03:44:34;;;;;;;28.17;22.00;;;12.70;99.90;;;;;;5035499;28;20205;-73
2023/05/06 03:47:00;;;;;;;30.23;20.15;;;12.60;99.90;;;;;;5035968;28;20200;-74
2023/05/06 03:49:27;;;;;;;29.65;20.92;;;12.60;99.90;;;;;;5034462;28;20216;-74
2023/05/06 03:51:55;;;;;;;24.77;19.35;;;12.60;99.90;;;;;;5034659;28;20208;-74
2023/05/06 03:54:23;;;;;;;30.25;20.88;;;12.60;99.90;;;;;;5036646;28;20228;-74
2023/05/06 03:56:51;;;;;;;25.77;18.85;;;12.60;99.90;;;;;;5035708;28;20746;-72
2023/05/06 03:59:18;;;;;;;29.35;19.73;;;12.60;99.90;;;;;;5034718;28;20262;-72
2023/05/06 04:01:45;;;;;;;24.38;18.90;;;12.70;99.90;;;;;;5033247;28;20203;-75
2023/05/06 04:04:11;;;;;;;25.10;20.20;;;12.70;99.90;;;;;;5033674;28;20401;-71
2023/05/06 04:06:38;;;;;;;30.65;21.25;;;12.70;99.90;;;;;;5035973;28;20197;-74
2023/05/06 04:09:05;;;;;;;28.98;20.85;;;12.70;99.90;;;;;;5033923;28;20305;-73
2023/05/06 04:11:32;;;;;;;31.17;20.13;;;12.70;99.90;;;;;;5039479;28;20199;-72
2023/05/06 04:14:01;;;;;;;30.08;20.23;;;12.70;99.90;;;;;;5033525;28;20457;-72
2023/05/06 04:16:28;;;;;;;24.83;18.25;;;12.90;99.90;;;;;;5027647;28;20204;-75
2023/05/06 04:18:55;;;;;;;28.40;18.58;;;12.90;99.90;;;;;;5033704;28;20230;-75
2023/05/06 04:21:22;;;;;;;27.77;18.58;;;12.90;99.90;;;;;;5037436;28;20670;-73
2023/05/06 04:23:49;;;;;;;27.60;19.98;;;12.80;99.90;;;;;;5036215;28;20308;-74
2023/05/06 04:26:15;;;;;;;27.20;19.63;;;13.00;99.90;;;;;;5039997;28;20626;-74
2023/05/06 04:28:43;;;;;;;28.58;19.90;;;13.00;99.90;;;;;;5033016;28;20270;-72
2023/05/06 04:31:13;;;;;;;30.33;20.38;;;13.00;99.90;;;;;;5031795;28;20230;-74
2023/05/06 04:33:40;;;;;;;24.30;19.27;;;13.00;99.90;;;;;;5029466;28;20211;-72
2023/05/06 04:36:08;;;;;;;28.58;22.10;;;12.90;99.90;;;;;;5035190;28;20200;-73
2023/05/06 04:38:36;;;;;;;22.77;19.20;;;12.90;99.90;;;;;;5033141;28;20200;-73
2023/05/06 04:41:04;;;;;;;27.65;20.73;;;12.90;99.90;;;;;;5041916;28;20254;-73
2023/05/06 04:43:31;;;;;;;24.58;18.58;;;12.90;99.90;;;;;;5038599;28;20211;-73
2023/05/06 04:45:58;;;;;;;23.92;19.13;;;13.00;99.90;;;;;;5035138;28;20274;-71
2023/05/06 04:48:26;;;;;;;26.08;19.48;;;13.00;99.90;;;;;;5033698;28;20222;-73
2023/05/06 04:50:53;;;;;;;29.60;20.60;;;13.00;99.90;;;;;;5033756;28;20633;-73
2023/05/06 04:53:20;;;;;;;25.60;20.08;;;13.10;99.90;;;;;;5038725;28;20208;-73
2023/05/06 04:55:47;;;;;;;23.20;18.92;;;13.10;99.90;;;;;;5033299;28;20662;-73
2023/05/06 04:58:14;;;;;;;24.83;19.02;;;12.90;99.90;;;;;;5035349;28;20222;-73
2023/05/06 05:00:41;;;;;;;28.63;19.33;;;13.10;99.90;;;;;;5032162;28;20234;-74
2023/05/06 05:03:08;;;;;;;27.88;21.85;;;13.10;99.90;;;;;;5035121;28;20291;-72
2023/05/06 05:05:36;;;;;;;26.17;21.00;;;13.10;99.90;;;;;;5036260;28;20290;-73
2023/05/06 05:08:03;;;;;;;23.52;18.77;;;13.20;99.90;;;;;;5039013;28;20275;-72
2023/05/06 05:10:30;;;;;;;25.67;19.63;;;13.20;99.90;;;;;;5039536;28;20219;-73
2023/05/06 05:12:57;;;;;;;24.60;18.25;;;13.20;99.90;;;;;;5027222;28;20196;-74
2023/05/06 05:15:24;;;;;;;27.33;19.88;;;13.30;99.90;;;;;;5030473;28;20226;-72
2023/05/06 05:17:51;;;;;;;24.33;18.88;;;13.30;99.90;;;;;;5037669;28;20628;-74
2023/05/06 05:20:18;;;;;;;21.52;18.83;;;13.30;99.90;;;;;;5033978;28;20306;-74
2023/05/06 05:22:46;;;;;;;27.80;20.13;;;13.20;99.90;;;;;;5031972;28;20217;-75
2023/05/06 05:25:13;;;;;;;20.70;17.80;;;13.20;99.90;;;;;;5038331;28;20199;-75
2023/05/06 05:27:41;;;;;;;20.52;17.40;;;13.30;99.90;;;;;;5033037;28;20285;-74
2023/05/06 05:30:09;;;;;;;22.48;17.70;;;13.40;99.90;;;;;;5033715;28;20219;-72
2023/05/06 05:32:36;;;;;;;24.60;17.27;;;13.40;99.90;;;;;;5034031;28;20296;-73
2023/05/06 05:35:11;;;;;;;19.50;15.50;;;13.50;99.90;;;;;;5033687;28;20206;-72
2023/05/06 05:37:38;;;;;;;19.95;14.27;;;13.50;99.90;;;;;;5032423;28;20198;-73
2023/05/06 05:40:10;;;;;;;25.45;16.83;;;13.60;99.90;;;;;;5035435;28;20689;-73
2023/05/06 05:42:36;;;;;;;23.80;17.00;;;13.70;99.90;;;;;;5032576;28;20203;-73
2023/05/06 05:45:04;;;;;;;23.25;17.73;;;13.70;99.90;;;;;;5032699;28;20283;-70
2023/05/06 05:47:31;;;;;;;19.58;16.13;;;13.80;99.90;;;;;;5032549;28;20276;-74
2023/05/06 05:49:58;;;;;;;16.00;13.75;;;13.90;99.90;;;;;;5031384;28;20615;-73
2023/05/06 05:52:24;;;;;;;19.35;14.65;;;13.90;99.90;;;;;;5033219;28;20555;-73
2023/05/06 05:54:51;;;;;;;24.52;16.85;;;14.00;99.90;;;;;;5034907;28;20763;-72
2023/05/06 05:57:20;;;;;;;22.80;18.10;;;13.90;99.90;;;;;;5038505;28;20227;-73
2023/05/06 05:59:47;;;;;;;19.92;14.80;;;14.00;99.90;;;;;;5031430;28;20236;-72
2023/05/06 06:02:13;;;;;;;21.13;16.98;;;14.10;99.90;;;;;;5032800;28;20228;-74
2023/05/06 06:04:40;;;;;;;19.15;14.02;;;14.20;99.90;;;;;;5032479;28;20354;-75
2023/05/06 06:07:08;;;;;;;18.40;13.75;;;14.30;99.90;;;;;;5025571;28;20301;-76
2023/05/06 06:09:36;;;;;;;15.85;13.30;;;14.40;99.90;;;;;;5032066;28;20306;-76
2023/05/06 06:12:02;;;;;;;14.50;12.98;;;14.60;99.90;;;;;;5032514;28;20284;-73
2023/05/06 06:14:31;;;;;;;19.08;13.52;;;14.70;99.90;;;;;;5032592;28;20216;-75
2023/05/06 06:16:58;;;;;;;15.13;13.20;;;14.70;99.90;;;;;;5038653;28;20657;-71
2023/05/06 06:19:25;;;;;;;19.88;15.50;;;14.60;99.90;;;;;;5041128;28;20541;-73
2023/05/06 06:21:52;;;;;;;21.05;17.55;;;14.60;99.90;;;;;;5039322;28;20319;-71
2023/05/06 06:24:19;;;;;;;17.30;14.93;;;14.50;99.90;;;;;;5031765;28;20568;-71
2023/05/06 06:26:47;;;;;;;22.17;15.45;;;14.50;99.90;;;;;;5042545;28;20821;-72
2023/05/06 06:29:14;;;;;;;22.70;17.08;;;14.50;99.90;;;;;;5035910;28;20589;-73
2023/05/06 06:31:42;;;;;;;17.40;15.32;;;14.60;99.90;;;;;;5039118;28;20257;-75
2023/05/06 06:34:11;;;;;;;16.50;12.98;;;14.60;99.90;;;;;;5035187;28;20203;-74
2023/05/06 06:36:43;;;;;;;15.02;12.20;;;14.70;99.90;;;;;;5035961;28;20647;-70
2023/05/06 06:39:10;;;;;;;17.23;13.82;;;14.80;99.90;;;;;;5040278;28;20231;-72
2023/05/06 06:41:38;;;;;;;15.75;13.30;;;14.90;99.90;;;;;;5041323;28;20543;-70
2023/05/06 06:44:05;;;;;;;17.10;13.40;;;15.00;99.90;;;;;;5044086;28;20384;-73
2023/05/06 06:46:32;;;;;;;16.75;14.90;;;15.10;99.90;;;;;;5036166;28;20213;-71
2023/05/06 06:49:01;;;;;;;15.30;13.35;;;15.20;99.90;;;;;;5039391;28;20248;-74
2023/05/06 06:51:28;;;;;;;17.40;13.38;;;15.30;99.90;;;;;;5034877;28;20220;-74
2023/05/06 06:53:55;;;;;;;15.27;13.60;;;15.30;99.90;;;;;;5047876;28;20206;-74
2023/05/06 06:56:23;;;;;;;15.90;12.23;;;15.40;99.90;;;;;;5044596;28;20201;-74
2023/05/06 06:58:50;;;;;;;14.27;11.98;;;15.30;99.90;;;;;;5044138;28;20304;-74
2023/05/06 07:01:17;;;;;;;14.45;12.85;;;15.20;99.90;;;;;;5037525;28;20210;-73
2023/05/06 07:03:45;;;;;;;16.65;13.00;;;15.10;99.90;;;;;;5036691;28;20667;-72
2023/05/06 07:06:14;;;;;;;14.65;12.88;;;15.10;99.90;;;;;;5030487;28;20209;-77
2023/05/06 07:08:40;;;;;;;23.38;13.90;;;14.90;99.90;;;;;;5040664;28;20280;-73
2023/05/06 07:11:13;;;;;;;18.25;12.52;;;14.90;99.90;;;;;;5036894;28;20189;-74
2023/05/06 07:13:40;;;;;;;19.38;14.63;;;14.90;99.90;;;;;;5037969;28;20201;-75
2023/05/06 07:16:07;;;;;;;15.32;13.18;;;15.00;99.90;;;;;;5043219;28;20629;-74
2023/05/06 07:18:33;;;;;;;17.10;13.30;;;15.20;99.90;;;;;;5035291;28;20211;-76
2023/05/06 07:21:00;;;;;;;19.23;12.57;;;15.20;99.90;;;;;;5030203;28;20253;-75
2023/05/06 07:23:29;;;;;;;15.02;13.45;;;15.20;99.90;;;;;;5034204;28;20339;-75
2023/05/06 07:25:57;;;;;;;17.42;12.32;;;15.10;99.90;;;;;;5040899;28;20290;-76
2023/05/06 07:28:24;;;;;;;19.55;13.35;;;15.00;99.90;;;;;;5030061;28;20217;-74
2023/05/06 07:30:51;;;;;;;16.85;15.07;;;15.10;99.90;;;;;;5034530;28;20214;-73
2023/05/06 07:33:19;;;;;;;26.33;19.58;;;15.10;99.90;;;;;;5041800;28;20294;-75
2023/05/06 07:35:46;;;;;;;35.03;26.95;;;15.30;99.90;;;;;;5037478;28;20638;-71
2023/05/06 07:38:13;;;;;;;38.63;28.98;;;15.50;99.90;;;;;;5039938;28;20670;-72
2023/05/06 07:40:41;;;;;;;47.47;35.10;;;15.70;99.90;;;;;;5036204;28;20326;-71
2023/05/06 07:43:08;;;;;;;52.30;35.42;;;15.90;99.90;;;;;;5034550;28;20201;-71
2023/05/06 07:45:35;;;;;;;40.72;32.30;;;16.00;99.90;;;;;;5038009;28;20208;-70
2023/05/06 07:48:03;;;;;;;51.22;33.78;;;15.80;99.90;;;;;;5035518;28;20199;-71
2023/05/06 07:50:30;;;;;;;46.28;34.25;;;15.80;99.90;;;;;;5037522;28;20221;-71
2023/05/06 07:52:57;;;;;;;47.03;35.67;;;15.80;99.90;;;;;;5038646;28;20232;-73
2023/05/06 07:55:24;;;;;;;40.78;31.60;;;16.00;99.90;;;;;;5039228;28;20206;-70
2023/05/06 07:57:53;;;;;;;44.07;30.93;;;16.00;99.90;;;;;;5032220;28;20570;-71
2023/05/06 08:00:20;;;;;;;49.13;31.73;;;16.10;99.90;;;;;;5037235;28;20473;-71
2023/05/06 08:02:47;;;;;;;44.17;29.00;;;16.30;99.90;;;;;;5038775;28;21300;-71
2023/05/06 08:05:16;;;;;;;37.10;30.73;;;16.70;99.90;;;;;;5036399;28;20455;-72
2023/05/06 08:07:43;;;;;;;35.63;28.37;;;16.80;99.90;;;;;;5038876;28;20503;-71
2023/05/06 08:20:24;;;;;;;26.53;17.23;;;16.70;99.90;;;;;;5047775;22;20947;-71
2023/05/06 08:22:51;;;;;;;22.40;16.17;;;16.70;99.90;;;;;;5042898;28;20450;-72
2023/05/06 08:25:18;;;;;;;23.07;16.23;;;16.90;99.90;;;;;;5067954;28;20469;-71
2023/05/06 08:27:45;;;;;;;21.63;15.17;;;17.10;99.90;;;;;;5067414;28;20445;-71
2023/05/06 08:30:14;;;;;;;20.70;16.87;;;17.30;99.90;;;;;;5072833;28;20506;-71
2023/05/06 08:32:41;;;;;;;20.83;17.17;;;17.40;99.90;;;;;;5068861;28;20524;-75
2023/05/06 08:35:09;;;;;;;26.77;17.80;;;17.30;99.90;;;;;;5071535;28;20524;-74
2023/05/06 08:37:37;;;;;;;26.80;20.50;;;17.20;99.90;;;;;;5070427;28;20438;-74
2023/05/06 08:40:05;;;;;;;23.27;17.50;;;17.00;99.90;;;;;;5065077;28;20549;-74
2023/05/06 08:42:36;;;;;;;22.63;18.47;;;17.00;99.90;;;;;;5062498;28;20480;-73
2023/05/06 08:45:03;;;;;;;24.97;21.47;;;17.10;99.90;;;;;;5072610;28;20506;-74
2023/05/06 08:47:34;;;;;;;28.37;21.77;;;17.10;99.90;;;;;;5069038;28;20864;-73
2023/05/06 08:50:01;;;;;;;36.80;26.37;;;17.20;99.90;;;;;;5053511;28;20471;-73
2023/05/06 08:52:29;;;;;;;26.63;22.20;;;17.20;99.90;;;;;;5066634;28;20474;-74
2023/05/06 08:55:03;;;;;;;25.57;20.47;;;17.10;99.90;;;;;;5059941;28;20499;-74
2023/05/06 08:57:31;;;;;;;25.40;21.03;;;17.20;99.90;;;;;;5047479;28;20787;-72
2023/05/06 08:59:58;;;;;;;19.20;17.20;;;17.30;99.90;;;;;;5067285;28;20513;-71
2023/05/06 09:02:28;;;;;;;28.50;21.07;;;17.50;99.90;;;;;;5058920;28;20482;-74
2023/05/06 09:04:55;;;;;;;34.07;23.20;;;17.50;99.90;;;;;;5059465;28;20450;-72
2023/05/06 09:07:24;;;;;;;31.07;22.73;;;17.70;99.90;;;;;;5058513;28;20460;-71
2023/05/06 09:09:51;;;;;;;26.23;20.67;;;17.90;99.90;;;;;;5073071;28;20476;-73
2023/05/06 09:12:19;;;;;;;24.47;20.30;;;18.10;99.90;;;;;;5073385;28;20438;-74
2023/05/06 09:14:50;;;;;;;27.27;21.50;;;18.20;99.90;;;;;;5069424;28;20455;-72
2023/05/06 09:17:22;;;;;;;23.77;18.37;;;18.40;99.90;;;;;;5070614;28;20528;-71
2023/05/06 09:19:51;;;;;;;22.83;18.50;;;18.80;99.90;;;;;;5060302;28;20477;-72
2023/05/06 09:22:20;;;;;;;28.10;21.23;;;18.90;99.90;;;;;;5068902;28;20478;-71
2023/05/06 09:24:55;;;;;;;22.07;18.53;;;19.00;99.90;;;;;;5066050;28;20471;-74
2023/05/06 09:27:23;;;;;;;19.93;17.60;;;19.70;99.90;;;;;;5056419;28;20476;-74
2023/05/06 09:30:03;;;;;;;23.37;18.83;;;20.60;99.90;;;;;;5079583;28;20465;-75
2023/05/06 09:32:31;;;;;;;24.60;21.33;;;21.40;99.90;;;;;;5071716;28;20490;-74
2023/05/06 09:34:58;;;;;;;37.00;28.10;;;22.20;99.90;;;;;;5065479;28;20460;-74
2023/05/06 09:37:26;;;;;;;25.53;21.13;;;22.40;99.20;;;;;;5056826;28;20451;-74
2023/05/06 09:39:55;;;;;;;34.13;21.03;;;22.50;98.80;;;;;;5072222;28;20455;-75
2023/05/06 09:42:24;;;;;;;26.50;21.97;;;22.30;98.00;;;;;;5072943;28;20483;-76
2023/05/06 09:44:56;;;;;;;21.10;18.47;;;21.90;98.90;;;;;;5062563;28;20873;-75
2023/05/06 09:47:25;;;;;;;22.70;18.10;;;22.00;99.10;;;;;;5069656;28;20475;-74
2023/05/06 09:49:57;;;;;;;19.60;15.97;;;22.40;98.60;;;;;;5067769;28;20493;-76
2023/05/06 09:52:24;;;;;;;19.57;16.53;;;23.50;96.90;;;;;;5065676;28;20442;-74
2023/05/06 09:54:51;;;;;;;21.73;17.27;;;24.60;94.30;;;;;;5071380;28;20582;-75
2023/05/06 09:57:19;;;;;;;21.37;18.90;;;25.60;92.40;;;;;;5063276;28;20529;-74
2023/05/06 09:59:50;;;;;;;24.63;19.83;;;26.20;90.60;;;;;;5061706;28;20680;-76
2023/05/06 10:02:18;;;;;;;22.43;19.57;;;25.90;89.80;;;;;;5062083;28;20500;-75
2023/05/06 10:04:48;;;;;;;19.43;17.43;;;25.30;90.50;;;;;;5065915;28;20534;-75
2023/05/06 10:07:21;;;;;;;21.60;16.30;;;24.80;91.20;;;;;;5060293;28;20476;-76
2023/05/06 10:09:50;;;;;;;21.43;16.17;;;24.20;91.60;;;;;;5074822;28;20493;-75
2023/05/06 10:12:18;;;;;;;22.07;16.00;;;24.10;91.80;;;;;;5073575;28;20556;-75
2023/05/06 10:14:55;;;;;;;16.80;15.00;;;23.70;92.40;;;;;;5078188;28;20433;-75
2023/05/06 10:17:25;;;;;;;15.50;12.30;;;23.60;93.10;;;;;;5072882;28;20445;-76
2023/05/06 10:19:59;;;;;;;13.93;12.10;;;23.60;92.90;;;;;;5069259;28;20831;-75
2023/05/06 10:22:37;;;;;;;17.00;14.30;;;23.70;92.50;;;;;;5056965;28;20556;-76
2023/05/06 10:25:11;;;;;;;20.60;13.50;;;23.30;92.90;;;;;;5046808;28;20454;-76
2023/05/06 10:27:45;;;;;;;16.87;10.90;;;23.10;94.20;;;;;;5039233;28;20456;-75
2023/05/06 10:30:30;;;;;;;15.00;12.10;;;23.50;93.10;;;;;;5068591;28;20476;-75
2023/05/06 10:33:09;;;;;;;13.13;10.73;;;23.70;93.10;;;;;;5070579;28;20447;-76
2023/05/06 10:35:50;;;;;;;11.10;9.30;;;23.40;92.50;;;;;;5065419;28;20485;-75
2023/05/06 10:38:23;;;;;;;12.60;10.20;;;23.30;92.90;;;;;;5066846;28;20448;-78
2023/05/06 10:40:51;;;;;;;11.87;9.57;;;22.90;93.30;;;;;;5060246;28;20439;-76
2023/05/06 10:43:24;;;;;;;10.23;9.23;;;22.80;93.50;;;;;;5048028;28;20454;-76
2023/05/06 10:46:03;;;;;;;14.00;9.00;;;22.50;93.90;;;;;;5060228;28;20446;-77
2023/05/06 10:48:32;;;;;;;14.47;9.60;;;22.70;94.50;;;;;;5055183;28;20870;-75
2023/05/06 10:51:22;;;;;;;10.87;9.57;;;22.90;94.20;;;;;;5066618;28;20909;-77
2023/05/06 10:53:57;;;;;;;10.57;9.20;;;22.80;93.80;;;;;;5075066;28;20470;-76
2023/05/06 10:56:24;;;;;;;13.13;8.47;;;22.90;94.10;;;;;;5070162;28;20476;-75
2023/05/06 10:58:52;;;;;;;10.87;9.70;;;22.90;93.10;;;;;;5064782;28;20820;-75
2023/05/06 11:01:25;;;;;;;12.27;9.20;;;22.00;93.60;;;;;;5060211;28;20883;-75
2023/05/06 11:03:52;;;;;;;10.00;9.03;;;21.70;94.80;;;;;;5036850;28;20440;-76
2023/05/06 11:06:37;;;;;;;12.50;8.93;;;21.50;95.60;;;;;;5062207;28;20446;-75
2023/05/06 11:09:05;;;;;;;11.40;9.57;;;21.70;95.80;;;;;;5078451;28;20476;-76
2023/05/06 11:11:57;;;;;;;18.20;10.70;;;21.90;94.90;;;;;;5064451;28;20804;-77
2023/05/06 11:14:29;;;;;;;12.67;8.67;;;21.80;94.60;;;;;;5052387;28;20438;-75
2023/05/06 11:16:58;;;;;;;10.20;9.10;;;21.60;94.80;;;;;;5070313;28;20987;-77
2023/05/06 11:19:27;;;;;;;14.83;9.47;;;21.60;95.20;;;;;;5069968;28;20544;-78
2023/05/06 11:21:56;;;;;;;12.40;10.90;;;21.40;95.20;;;;;;5066613;28;20891;-75
2023/05/06 11:24:25;;;;;;;18.90;11.70;;;21.40;95.90;;;;;;5065192;28;20441;-78
2023/05/06 11:26:53;;;;;;;11.33;10.20;;;21.70;95.50;;;;;;5067915;28;20453;-77
2023/05/06 11:29:20;;;;;;;12.07;10.93;;;21.70;94.70;;;;;;5077246;28;20940;-76
2023/05/06 11:31:48;;;;;;;15.20;13.13;;;21.60;95.40;;;;;;5075892;28;20470;-75
2023/05/06 11:34:22;;;;;;;15.77;14.17;;;21.70;94.90;;;;;;5072984;28;20939;-77
2023/05/06 11:36:53;;;;;;;15.00;13.50;;;21.70;95.10;;;;;;5061257;28;20894;-76
2023/05/06 11:39:20;;;;;;;10.77;8.37;;;21.70;95.20;;;;;;5069449;28;20548;-75
2023/05/06 11:41:47;;;;;;;15.47;11.40;;;22.00;94.80;;;;;;5056566;28;20453;-78
2023/05/06 11:44:24;;;;;;;12.20;9.10;;;22.00;94.80;;;;;;5071472;28;20900;-75
2023/05/06 11:46:52;;;;;;;8.63;7.83;;;21.90;95.00;;;;;;5051253;28;20443;-78
2023/05/06 11:49:21;;;;;;;14.33;10.03;;;21.90;94.60;;;;;;5063117;28;20473;-77
2023/05/06 11:51:49;;;;;;;11.70;10.50;;;21.70;94.70;;;;;;5073174;28;20490;-73
2023/05/06 11:54:17;;;;;;;11.00;9.83;;;21.50;95.00;;;;;;5065995;28;20804;-79
2023/05/06 11:56:50;;;;;;;11.77;10.57;;;21.40;95.40;;;;;;5061354;28;20456;-74
2023/05/06 11:59:18;;;;;;;13.17;11.13;;;21.30;95.60;;;;;;5073894;28;20803;-76
2023/05/06 12:01:45;;;;;;;13.13;11.10;;;21.30;95.50;;;;;;5074471;28;20560;-76
2023/05/06 12:04:13;;;;;;;18.67;10.97;;;21.30;95.50;;;;;;5073052;28;20445;-76
2023/05/06 12:06:41;;;;;;;13.33;11.10;;;21.40;95.20;;;;;;5061948;28;21153;-77
2023/05/06 12:09:11;;;;;;;10.73;8.17;;;21.60;95.00;;;;;;5060806;28;20458;-77
2023/05/06 12:11:39;;;;;;;11.23;9.00;;;21.40;95.10;;;;;;5062930;28;20481;-75
2023/05/06 12:14:08;;;;;;;10.20;8.20;;;21.20;95.50;;;;;;5062455;28;20452;-75
2023/05/06 12:16:36;;;;;;;13.80;8.97;;;21.10;95.60;;;;;;5058957;28;20480;-79
2023/05/06 12:19:04;;;;;;;10.37;9.10;;;21.20;95.90;;;;;;5060932;28;20591;-77
2023/05/06 12:21:31;;;;;;;9.93;8.93;;;21.40;95.60;;;;;;5081984;28;20472;-78
2023/05/06 12:24:01;;;;;;;8.97;8.03;;;21.60;95.00;;;;;;5083193;28;20567;-74
2023/05/06 12:26:30;;;;;;;10.50;9.40;;;21.80;95.10;;;;;;5066524;28;20437;-75
2023/05/06 12:29:09;;;;;;;13.73;12.00;;;21.80;95.00;;;;;;5060767;28;20465;-77
2023/05/06 12:31:36;;;;;;;11.40;10.20;;;22.00;94.10;;;;;;5073733;28;20448;-77
2023/05/06 12:34:04;;;;;;;15.23;10.97;;;22.00;94.30;;;;;;5065616;28;20459;-74
2023/05/06 12:36:32;;;;;;;11.70;9.27;;;22.10;94.50;;;;;;5060199;28;20441;-74
2023/05/06 12:39:01;;;;;;;11.13;9.43;;;22.10;94.00;;;;;;5076622;28;20457;-75
2023/05/06 12:41:46;;;;;;;11.93;10.73;;;21.90;93.80;;;;;;5068771;28;20511;-74
2023/05/06 12:44:33;;;;;;;13.63;11.33;;;21.40;94.00;;;;;;5076357;28;20452;-75
2023/05/06 12:47:01;;;;;;;11.67;10.57;;;20.90;94.90;;;;;;5065948;28;20453;-74